Time;durP1;ratioP1;P1;durP2;ratioP2;P2;SDS_P1;SDS_P2;PMS_P1;PMS_P2;Temp;Humidity;BMP_temperature;BMP_pressure;BME280_temperature;BME280_humidity;BME280_pressure;Samples;Min_cycle;Max_cycle;Signal;HPM_P1;HPM_P2
2022/11/23 00:02:00;;;;;;;22.70;14.07;;;;;;;1.65;82.36;100184.38;1818162;79;21196;-58
2022/11/23 00:05:07;;;;;;;22.20;14.00;;;;;;;1.60;82.35;100189.28;1818183;79;21180;-59
2022/11/23 00:08:14;;;;;;;21.17;13.32;;;;;;;1.60;82.32;100190.63;1818238;79;21200;-58
2022/11/23 00:11:21;;;;;;;21.12;13.15;;;;;;;1.58;82.34;100190.76;1818255;79;21251;-59
2022/11/23 00:14:30;;;;;;;23.98;14.18;;;;;;;1.60;82.42;100190.63;1818344;79;21200;-58
2022/11/23 00:17:36;;;;;;;21.37;13.80;;;;;;;1.63;82.46;100211.48;1818125;79;21330;-59
2022/11/23 00:20:41;;;;;;;20.60;13.53;;;;;;;1.63;82.43;100198.47;1818182;79;21184;-58
2022/11/23 00:23:48;;;;;;;22.73;14.00;;;;;;;1.60;82.34;100201.42;1818225;79;21511;-59
2022/11/23 00:26:56;;;;;;;24.57;13.70;;;;;;;1.58;82.37;100208.77;1763893;78;21780;-58
2022/11/23 00:30:03;;;;;;;21.40;13.85;;;;;;;1.58;82.35;100210.98;1818207;79;21192;-58
2022/11/23 00:33:09;;;;;;;25.88;16.02;;;;;;;1.57;82.35;100205.72;1818092;79;21200;-59
2022/11/23 00:36:21;;;;;;;24.10;13.93;;;;;;;1.57;82.34;100203.02;1818179;79;21192;-60
2022/11/23 00:39:26;;;;;;;21.85;14.63;;;;;;;1.57;82.32;100211.95;1784764;79;21255;-60
2022/11/23 00:42:35;;;;;;;22.77;14.03;;;;;;;1.56;82.32;100208.89;1798338;79;21240;-60
2022/11/23 00:45:41;;;;;;;23.15;13.70;;;;;;;1.58;82.35;100196.63;1801067;79;21165;-59
2022/11/23 00:48:54;;;;;;;23.67;14.18;;;;;;;1.59;82.35;100201.06;1776753;79;21690;-59
2022/11/23 00:52:00;;;;;;;24.72;15.13;;;;;;;1.59;82.35;100198.37;1709242;84;21252;-59
2022/11/23 00:55:06;;;;;;;27.77;15.38;;;;;;;1.60;82.40;100191.50;1809081;79;21188;-58
2022/11/23 00:58:13;;;;;;;24.63;14.45;;;;;;;1.64;82.46;100187.55;1801987;79;21204;-58
2022/11/23 01:01:21;;;;;;;21.90;14.63;;;;;;;1.68;82.49;100183.64;1757767;80;21162;-60
2022/11/23 01:04:27;;;;;;;27.17;16.15;;;;;;;1.72;82.43;100192.32;1783266;80;21193;-57
2022/11/23 01:07:36;;;;;;;24.63;14.05;;;;;;;1.70;82.35;100195.66;1812583;78;21233;-58
2022/11/23 01:10:43;;;;;;;23.02;13.90;;;;;;;1.68;82.32;100206.58;1812203;79;21235;-58
2022/11/23 01:13:50;;;;;;;22.70;14.63;;;;;;;1.71;82.33;100218.95;1809727;79;21263;-59
2022/11/23 01:16:56;;;;;;;22.42;14.25;;;;;;;1.73;82.36;100224.57;1801501;79;21221;-58
2022/11/23 01:20:04;;;;;;;25.17;15.58;;;;;;;1.75;82.32;100226.66;1801014;79;21189;-60
2022/11/23 01:23:10;;;;;;;24.92;14.87;;;;;;;1.72;82.31;100224.22;1802035;79;21193;-59
2022/11/23 01:26:17;;;;;;;24.87;15.35;;;;;;;1.73;82.34;100221.88;1786489;79;21722;-59
2022/11/23 01:29:25;;;;;;;23.35;14.20;;;;;;;1.75;82.32;100229.84;1805459;78;21217;-58
2022/11/23 01:32:31;;;;;;;23.95;15.13;;;;;;;1.75;82.33;100233.89;1786956;79;21248;-59
2022/11/23 01:35:38;;;;;;;24.07;14.93;;;;;;;1.72;82.28;100222.00;1800994;79;21166;-59
2022/11/23 01:38:44;;;;;;;25.72;14.80;;;;;;;1.72;82.30;100228.27;1801178;79;21197;-59
2022/11/23 01:41:51;;;;;;;26.17;16.00;;;;;;;1.73;82.27;100224.57;1800698;79;21149;-59
2022/11/23 01:44:58;;;;;;;24.57;14.33;;;;;;;1.74;82.25;100224.09;1800243;79;21177;-58
2022/11/23 01:48:04;;;;;;;23.27;15.23;;;;;;;1.75;82.27;100231.19;1801673;78;21181;-58
2022/11/23 01:51:15;;;;;;;24.52;14.95;;;;;;;1.76;82.30;100244.55;1797681;79;21642;-58
2022/11/23 01:54:30;;;;;;;33.60;17.67;;;;;;;1.79;82.32;100242.12;1817334;79;21235;-59
2022/11/23 01:57:39;;;;;;;24.32;15.28;;;;;;;1.78;82.25;100249.83;1769580;79;21777;-60
2022/11/23 02:00:48;;;;;;;26.93;16.52;;;;;;;1.78;82.27;100247.13;1744815;79;21190;-60
2022/11/23 02:03:55;;;;;;;24.10;14.53;;;;;;;1.78;82.30;100255.22;1774386;79;21193;-58
2022/11/23 02:07:06;;;;;;;27.27;15.95;;;;;;;1.80;82.32;100261.36;1776452;80;21378;-59
2022/11/23 02:10:12;;;;;;;26.52;15.70;;;;;;;1.81;82.29;100268.50;1812227;79;21228;-59
2022/11/23 02:13:19;;;;;;;26.35;16.42;;;;;;;1.81;82.29;100269.84;1797416;79;21244;-61
2022/11/23 02:16:27;;;;;;;26.45;15.78;;;;;;;1.81;82.25;100276.59;1799958;79;21200;-59
2022/11/23 02:19:48;;;;;;;24.27;15.03;;;;;;;1.79;82.19;100281.24;1801594;78;21193;-59
2022/11/23 02:23:18;;;;;;;26.97;16.12;;;;;;;1.78;82.15;100288.95;1781023;79;21189;-59
2022/11/23 02:26:39;;;;;;;28.92;17.10;;;;;;;1.78;82.20;100281.72;1768420;79;21181;-60
2022/11/23 02:29:41;;;;;;;38.08;20.05;;;;;;;1.79;82.25;100290.69;1770616;79;21256;-58
2022/11/23 02:32:46;;;;;;;30.95;17.32;;;;;;;1.80;82.25;100291.05;1768192;80;21170;-59
2022/11/23 02:36:00;;;;;;;28.00;16.97;;;;;;;1.81;82.26;100296.31;1777952;79;21198;-58
2022/11/23 02:39:07;;;;;;;30.40;18.62;;;;;;;1.80;82.25;100293.27;1768184;80;21248;-60
2022/11/23 02:42:13;;;;;;;30.05;17.65;;;;;;;1.83;82.27;100293.50;1779157;80;21173;-60
2022/11/23 02:45:36;;;;;;;31.20;18.42;;;;;;;1.85;82.28;100299.63;1774692;80;21435;-60
2022/11/23 02:48:41;;;;;;;29.27;17.73;;;;;;;1.88;82.29;100302.09;1774741;79;21367;-59
2022/11/23 02:51:49;;;;;;;33.85;18.85;;;;;;;1.90;82.32;100296.08;1756391;79;21322;-58
2022/11/23 02:54:54;;;;;;;38.08;19.10;;;;;;;1.94;82.37;100296.19;1800829;79;21185;-59
2022/11/23 02:57:59;;;;;;;34.75;19.30;;;;;;;1.97;82.37;100295.45;1769206;80;21221;-58
2022/11/23 03:01:05;;;;;;;34.33;18.95;;;;;;;1.96;82.21;100307.73;1772740;79;21244;-58
2022/11/23 03:04:11;;;;;;;37.88;21.23;;;;;;;1.94;82.16;100302.94;1713776;83;21215;-60
2022/11/23 03:07:20;;;;;;;35.05;19.35;;;;;;;1.91;82.14;100297.78;1735962;82;21241;-59
2022/11/23 03:10:26;;;;;;;34.67;20.45;;;;;;;1.91;82.15;100292.39;1803546;79;21516;-60
2022/11/23 03:13:31;;;;;;;42.50;21.10;;;;;;;1.93;82.14;100298.53;1803250;79;21169;-59
2022/11/23 03:16:37;;;;;;;38.08;21.62;;;;;;;1.91;82.12;100313.98;1804619;79;21259;-58
2022/11/23 03:19:46;;;;;;;38.38;20.35;;;;;;;1.88;82.03;100312.40;1801042;78;21201;-58
2022/11/23 03:22:54;;;;;;;36.48;20.27;;;;;;;1.84;82.08;100305.52;1751150;79;21216;-58
2022/11/23 03:26:04;;;;;;;39.85;21.07;;;;;;;1.88;82.16;100305.66;1788376;79;21256;-59
2022/11/23 03:29:13;;;;;;;36.00;19.62;;;;;;;1.88;82.14;100301.60;1769987;79;21190;-58
2022/11/23 03:32:20;;;;;;;38.70;19.37;;;;;;;1.87;82.09;100311.17;1764081;80;21668;-60
2022/11/23 03:35:27;;;;;;;35.63;19.12;;;;;;;1.85;82.05;100319.88;1738249;82;21193;-59
2022/11/23 03:38:36;;;;;;;44.80;21.35;;;;;;;1.84;82.06;100315.47;1788890;79;21249;-59
2022/11/23 03:41:46;;;;;;;39.73;20.20;;;;;;;1.82;82.05;100310.67;1793244;79;21169;-58
2022/11/23 03:44:57;;;;;;;39.53;20.68;;;;;;;1.82;82.10;100317.42;1766681;79;21197;-58
2022/11/23 03:48:03;;;;;;;41.08;20.55;;;;;;;1.82;82.06;100319.64;1768549;80;21271;-58
2022/11/23 03:51:09;;;;;;;39.63;20.65;;;;;;;1.84;82.14;100328.45;1777470;78;21252;-59
2022/11/23 03:54:15;;;;;;;38.63;21.50;;;;;;;1.89;82.21;100321.36;1774667;79;21328;-60
2022/11/23 03:57:23;;;;;;;37.35;19.90;;;;;;;1.94;82.29;100322.70;1767981;79;21170;-59
2022/11/23 04:00:36;;;;;;;41.00;21.95;;;;;;;1.98;82.31;100328.72;1768123;80;21201;-58
2022/11/23 04:03:43;;;;;;;36.85;19.25;;;;;;;1.95;82.17;100331.15;1760053;80;21276;-59
2022/11/23 04:06:52;;;;;;;39.83;20.90;;;;;;;1.94;82.13;100332.63;1762128;80;21232;-59
2022/11/23 04:10:00;;;;;;;40.40;20.65;;;;;;;1.89;81.99;100337.56;1768623;80;21181;-60
2022/11/23 04:13:19;;;;;;;45.65;22.62;;;;;;;1.80;81.94;100336.92;1768495;81;21614;-60
2022/11/23 04:16:14;;;;;;;40.83;22.15;;;;;;;1.80;82.02;100338.27;1785160;80;21321;-60
2022/11/23 04:19:19;;;;;;;43.50;21.30;;;;;;;1.80;82.05;100338.27;1797651;78;21231;-59
2022/11/23 04:22:26;;;;;;;41.15;20.35;;;;;;;1.79;82.06;100334.73;1800807;79;21217;-59
2022/11/23 04:25:31;;;;;;;40.20;21.55;;;;;;;1.80;82.09;100336.44;1800688;79;21181;-59
2022/11/23 04:28:37;;;;;;;42.85;21.95;;;;;;;1.83;82.11;100343.41;1800932;79;21204;-59
2022/11/23 04:31:43;;;;;;;41.85;22.27;;;;;;;1.83;82.15;100350.16;1800948;79;21601;-58
2022/11/23 04:34:49;;;;;;;38.65;21.10;;;;;;;1.83;82.13;100346.11;1800583;79;21224;-60
2022/11/23 04:37:56;;;;;;;46.48;23.45;;;;;;;1.87;82.21;100350.30;1758604;80;21229;-58
2022/11/23 04:41:03;;;;;;;40.90;22.85;;;;;;;1.89;82.18;100341.61;1757149;80;21222;-59
2022/11/23 04:44:07;;;;;;;41.08;21.75;;;;;;;1.87;82.08;100355.70;1771101;79;21236;-57
2022/11/23 04:47:15;;;;;;;53.58;30.27;;;;;;;1.86;82.13;100353.48;1735531;80;21245;-60
2022/11/23 04:50:23;;;;;;;47.95;25.90;;;;;;;1.87;82.17;100345.74;1768927;80;21525;-59
2022/11/23 04:53:29;;;;;;;48.58;24.77;;;;;;;1.91;82.28;100351.28;1771711;80;21193;-60
2022/11/23 04:56:35;;;;;;;43.50;22.22;;;;;;;1.96;82.24;100351.78;1738293;82;21249;-60
2022/11/23 04:59:42;;;;;;;41.45;22.13;;;;;;;1.97;82.16;100348.56;1812102;79;21216;-60
2022/11/23 05:02:50;;;;;;;52.05;25.25;;;;;;;1.96;82.15;100348.22;1804468;79;21342;-59
2022/11/23 05:06:00;;;;;;;43.98;22.90;;;;;;;1.97;82.19;100366.98;1760492;81;21712;-59
2022/11/23 05:09:06;;;;;;;46.40;23.35;;;;;;;2.00;82.23;100364.55;1740791;82;21351;-60
2022/11/23 05:12:22;;;;;;;46.85;25.02;;;;;;;2.02;82.22;100376.93;1767274;80;21194;-60
2022/11/23 05:15:28;;;;;;;53.83;24.37;;;;;;;2.01;82.20;100372.52;1740672;82;21351;-59
2022/11/23 05:18:37;;;;;;;49.42;26.95;;;;;;;2.03;82.18;100374.59;1787587;79;21176;-59
2022/11/23 05:21:37;;;;;;;54.27;27.10;;;;;;;2.02;82.11;100373.36;1746778;81;21189;-60
2022/11/23 05:24:46;;;;;;;50.73;24.43;;;;;;;2.03;82.17;100373.75;1794652;79;21173;-60
2022/11/23 05:27:54;;;;;;;62.03;25.92;;;;;;;2.05;82.16;100375.33;1801548;78;21221;-60
2022/11/23 05:31:01;;;;;;;60.15;26.62;;;;;;;2.06;82.14;100382.95;1768020;81;21213;-59
2022/11/23 05:34:08;;;;;;;44.65;22.58;;;;;;;2.07;82.15;100388.70;1769271;80;21229;-59
2022/11/23 05:37:15;;;;;;;41.00;20.35;;;;;;;2.10;82.17;100399.25;1770360;79;21248;-59
2022/11/23 05:40:26;;;;;;;37.23;18.57;;;;;;;2.13;82.26;100406.63;1778158;80;21189;-61
2022/11/23 05:43:32;;;;;;;31.62;17.60;;;;;;;2.13;82.13;100409.33;1702528;82;21189;-60
2022/11/23 05:46:40;;;;;;;30.77;16.12;;;;;;;2.05;82.04;100414.47;1726075;82;21261;-59
2022/11/23 05:49:48;;;;;;;33.02;17.52;;;;;;;1.99;81.98;100415.45;1725840;83;21174;-59
2022/11/23 05:52:56;;;;;;;33.02;18.32;;;;;;;1.93;81.92;100425.38;1725765;83;21225;-61
2022/11/23 05:56:09;;;;;;;32.75;17.32;;;;;;;1.88;81.87;100427.09;1713909;82;21347;-60
2022/11/23 05:59:18;;;;;;;30.68;16.35;;;;;;;1.83;81.82;100432.47;1742289;80;21330;-62
2022/11/23 06:02:25;;;;;;;34.90;17.70;;;;;;;1.78;81.79;100440.05;1774421;79;21205;-61
2022/11/23 06:05:33;;;;;;;39.18;18.23;;;;;;;1.75;81.80;100425.45;1785137;79;21174;-61
2022/11/23 06:08:41;;;;;;;39.03;19.95;;;;;;;1.73;81.81;100436.88;1771930;80;21253;-62
2022/11/23 06:11:48;;;;;;;38.30;20.00;;;;;;;1.72;81.86;100423.87;1789467;79;21742;-61
2022/11/23 06:15:00;;;;;;;36.10;18.25;;;;;;;1.73;81.90;100432.83;1786663;79;21307;-62
2022/11/23 06:18:08;;;;;;;34.85;18.45;;;;;;;1.75;81.96;100440.30;1779356;80;21733;-62
2022/11/23 06:21:16;;;;;;;36.70;18.07;;;;;;;1.79;82.02;100437.75;1769840;80;21315;-61
2022/11/23 06:24:25;;;;;;;28.57;16.23;;;;;;;1.83;82.04;100440.09;1768032;81;21241;-61
2022/11/23 06:27:34;;;;;;;28.07;15.85;;;;;;;1.84;82.00;100436.39;1702963;81;21197;-61
2022/11/23 06:30:43;;;;;;;31.30;16.50;;;;;;;1.84;81.99;100442.30;1731434;81;21686;-63
2022/11/23 06:33:49;;;;;;;27.02;15.63;;;;;;;1.82;81.93;100442.91;1769127;81;21188;-61
2022/11/23 06:36:56;;;;;;;34.45;17.25;;;;;;;1.83;81.92;100447.31;1809481;79;21213;-61
2022/11/23 06:40:01;;;;;;;28.17;15.15;;;;;;;1.84;81.93;100447.19;1801751;79;21240;-63
2022/11/23 06:43:08;;;;;;;30.12;16.02;;;;;;;1.87;81.96;100454.20;1797325;79;21338;-61
2022/11/23 06:46:14;;;;;;;35.65;18.55;;;;;;;1.89;82.00;100449.56;1811436;79;21240;-63
2022/11/23 06:49:20;;;;;;;35.92;19.12;;;;;;;1.92;82.00;100446.62;1748777;81;21255;-62
2022/11/23 06:52:37;;;;;;;34.55;18.62;;;;;;;1.95;82.01;100453.95;1810866;78;21818;-61
2022/11/23 06:55:45;;;;;;;32.38;17.05;;;;;;;1.99;82.00;100453.23;1802839;79;21225;-62
2022/11/23 06:58:53;;;;;;;33.45;17.98;;;;;;;2.03;81.99;100454.73;1794789;79;21905;-62
2022/11/23 07:01:58;;;;;;;39.70;19.48;;;;;;;2.05;82.01;100458.15;1769983;79;21391;-61
2022/11/23 07:05:05;;;;;;;38.30;19.55;;;;;;;2.08;82.04;100465.52;1766092;79;21688;-62
2022/11/23 07:08:13;;;;;;;34.43;18.20;;;;;;;2.12;82.01;100467.50;1789029;79;21748;-62
2022/11/23 07:11:22;;;;;;;28.67;15.83;;;;;;;2.14;81.96;100475.00;1786493;79;21846;-61
2022/11/23 07:14:29;;;;;;;30.80;17.45;;;;;;;2.14;81.95;100466.38;1789590;80;21302;-62
2022/11/23 07:17:36;;;;;;;31.80;17.92;;;;;;;2.14;81.87;100465.03;1789239;80;21235;-65
2022/11/23 07:20:43;;;;;;;34.13;17.73;;;;;;;2.15;81.87;100464.08;1789004;80;21377;-63
2022/11/23 07:23:50;;;;;;;30.45;16.85;;;;;;;2.15;81.84;100464.08;1781256;79;21189;-59
2022/11/23 07:26:57;;;;;;;29.57;15.68;;;;;;;2.15;81.81;100464.56;1798029;80;21426;-61
2022/11/23 07:30:04;;;;;;;30.72;18.25;;;;;;;2.15;81.79;100462.73;1797257;79;21184;-62
2022/11/23 07:33:12;;;;;;;33.15;15.95;;;;;;;2.16;81.77;100454.11;1790775;79;21195;-64
2022/11/23 07:36:18;;;;;;;31.75;16.35;;;;;;;2.17;81.78;100465.30;1788519;80;21195;-63
2022/11/23 07:39:24;;;;;;;27.60;14.98;;;;;;;2.17;81.73;100470.70;1792825;79;21169;-63
2022/11/23 07:42:30;;;;;;;32.70;17.23;;;;;;;2.17;81.73;100470.70;1787303;79;21517;-62
2022/11/23 07:45:37;;;;;;;29.05;15.45;;;;;;;2.20;81.83;100475.86;1750492;81;21238;-61
2022/11/23 07:48:46;;;;;;;29.77;16.87;;;;;;;2.24;81.80;100475.97;1754601;80;21222;-63
2022/11/23 07:51:55;;;;;;;25.57;15.10;;;;;;;2.23;81.78;100477.84;1758187;80;21841;-65
2022/11/23 07:55:00;;;;;;;28.30;15.00;;;;;;;2.23;81.71;100487.77;1747961;80;21232;-64
2022/11/23 07:58:05;;;;;;;24.57;14.10;;;;;;;2.21;81.67;100471.69;1724535;81;21195;-62
2022/11/23 08:01:14;;;;;;;28.27;15.00;;;;;;;2.20;81.62;100474.03;1755465;79;21423;-62
2022/11/23 08:04:22;;;;;;;26.25;14.07;;;;;;;2.21;81.61;100474.86;1739800;80;21660;-64
2022/11/23 08:07:36;;;;;;;22.98;12.80;;;;;;;2.23;81.64;100479.19;1716815;82;21230;-65
2022/11/23 08:10:48;;;;;;;22.07;11.90;;;;;;;2.28;81.62;100478.81;1695240;82;21274;-62
2022/11/23 08:13:54;;;;;;;22.55;12.10;;;;;;;2.31;81.61;100486.67;1721912;82;21234;-65
2022/11/23 08:17:01;;;;;;;26.77;12.95;;;;;;;2.32;81.56;100484.33;1796023;79;21240;-62
2022/11/23 08:20:11;;;;;;;20.97;10.95;;;;;;;2.30;81.44;100486.31;1790273;77;21593;-62
2022/11/23 08:23:17;;;;;;;23.73;12.45;;;;;;;2.30;81.44;100494.42;1790780;79;21221;-62
2022/11/23 08:26:26;;;;;;;21.75;11.80;;;;;;;2.30;81.44;100484.45;1783134;80;21813;-60
2022/11/23 08:29:32;;;;;;;23.25;12.85;;;;;;;2.32;81.47;100482.98;1777223;80;21209;-61
2022/11/23 08:32:39;;;;;;;23.47;11.93;;;;;;;2.34;81.42;100485.95;1769140;79;21233;-64
2022/11/23 08:35:48;;;;;;;25.45;11.90;;;;;;;2.35;81.45;100478.69;1773847;79;21176;-61
2022/11/23 08:38:55;;;;;;;21.10;12.30;;;;;;;2.38;81.44;100471.20;1756117;80;21209;-60
2022/11/23 08:42:02;;;;;;;24.30;11.78;;;;;;;2.41;81.47;100479.06;1791498;79;21736;-61
2022/11/23 08:45:09;;;;;;;23.05;12.20;;;;;;;2.39;81.37;100479.70;1801960;79;21216;-61
2022/11/23 08:48:15;;;;;;;22.55;12.45;;;;;;;2.38;81.32;100485.22;1774840;79;21207;-61
2022/11/23 08:51:21;;;;;;;23.27;12.75;;;;;;;2.33;81.17;100481.50;1817057;78;21855;-63
2022/11/23 08:54:30;;;;;;;23.70;11.65;;;;;;;2.27;81.10;100486.53;1769935;79;21733;-62
2022/11/23 08:57:36;;;;;;;23.83;12.78;;;;;;;2.26;81.13;100490.22;1765731;78;21202;-65
2022/11/23 09:00:49;;;;;;;24.37;12.33;;;;;;;2.26;81.18;100483.47;1744478;80;21240;-63
2022/11/23 09:03:55;;;;;;;24.00;11.78;;;;;;;2.29;81.22;100481.88;1764442;80;21296;-63
2022/11/23 09:07:01;;;;;;;20.55;11.33;;;;;;;2.33;81.29;100475.27;1772617;80;21785;-62
2022/11/23 09:10:08;;;;;;;21.23;11.97;;;;;;;2.38;81.26;100477.12;1785777;80;21747;-64
2022/11/23 09:13:16;;;;;;;21.48;11.15;;;;;;;2.37;81.19;100474.03;1781412;79;21215;-65
2022/11/23 09:16:22;;;;;;;21.77;11.57;;;;;;;2.39;81.21;100477.47;1789848;80;21222;-64
2022/11/23 09:19:31;;;;;;;23.60;11.03;;;;;;;2.39;81.21;100476.99;1789175;80;21548;-65
2022/11/23 09:22:41;;;;;;;20.02;11.45;;;;;;;2.45;81.25;100476.98;1758895;80;21209;-64
2022/11/23 09:25:48;;;;;;;22.60;11.83;;;;;;;2.43;81.13;100481.63;1765526;80;21204;-61
2022/11/23 09:28:55;;;;;;;25.10;11.68;;;;;;;2.39;81.11;100475.64;1758572;80;21333;-63
2022/11/23 09:32:04;;;;;;;27.58;12.73;;;;;;;2.43;81.17;100482.98;1742719;82;21229;-63
2022/11/23 09:35:12;;;;;;;22.73;12.63;;;;;;;2.43;81.13;100474.41;1764978;80;21280;-65
2022/11/23 09:38:20;;;;;;;19.05;11.30;;;;;;;2.51;81.23;100489.99;1798404;79;21814;-64
2022/11/23 09:42:02;;;;;;;21.68;11.45;;;;;;;2.55;81.14;100482.03;1792277;80;21692;-64
2022/11/23 09:45:44;;;;;;;22.65;11.83;;;;;;;2.55;81.07;100483.38;1793151;79;21178;-61
2022/11/23 09:49:11;;;;;;;;;;;;;;;2.54;81.06;100473.53;1800502;79;21228;-61
2022/11/23 09:52:23;;;;;;;34.53;14.25;;;;;;;2.55;81.07;100482.86;1801066;78;20624;-56
2022/11/23 09:55:54;;;;;;;29.48;14.35;;;;;;;2.54;81.09;100483.86;1789945;79;21242;-62
2022/11/23 09:59:03;;;;;;;26.37;13.55;;;;;;;2.58;81.12;100482.65;1777075;78;21755;-61
2022/11/23 10:02:10;;;;;;;24.80;12.37;;;;;;;2.58;81.10;100483.12;1781552;79;21232;-62
2022/11/23 10:05:21;;;;;;;31.95;16.60;;;;;;;2.60;81.13;100490.63;1775722;79;21746;-62
2022/11/23 10:09:07;;;;;;;20.30;12.03;;;;;;;2.61;81.11;100488.28;1762623;81;21797;-63
2022/11/23 10:12:45;;;;;;;21.80;12.80;;;;;;;2.63;81.05;100482.27;1769730;81;21204;-65
2022/11/23 10:16:37;;;;;;;29.72;14.78;;;;;;;2.62;81.00;100473.78;1733089;82;21777;-61
2022/11/23 10:20:09;;;;;;;27.85;15.50;;;;;;;2.65;81.01;100477.09;1770211;80;21478;-62
2022/11/23 10:23:39;;;;;;;21.93;11.88;;;;;;;2.69;81.02;100472.31;1758881;81;21205;-59
2022/11/23 10:26:49;;;;;;;25.32;13.05;;;;;;;2.73;81.00;100465.66;1763924;80;21871;-59
2022/11/23 10:29:56;;;;;;;27.22;14.30;;;;;;;2.74;80.98;100462.84;1766673;80;21196;-59
2022/11/23 10:33:30;;;;;;;24.55;13.90;;;;;;;2.79;81.04;100461.97;1801506;79;21566;-58
2022/11/23 10:36:36;;;;;;;25.77;12.50;;;;;;;2.84;81.00;100457.54;1766033;80;21185;-59
2022/11/23 10:39:42;;;;;;;24.45;13.95;;;;;;;2.90;81.02;100453.02;1765786;80;21260;-58
2022/11/23 10:42:56;;;;;;;24.10;14.00;;;;;;;2.95;80.91;100465.62;1766246;81;21809;-57
2022/11/23 10:46:40;;;;;;;21.85;12.43;;;;;;;2.97;80.86;100451.50;1766025;80;21757;-56
2022/11/23 10:49:46;;;;;;;20.70;11.68;;;;;;;3.00;80.85;100453.47;1766414;81;21188;-58
2022/11/23 10:52:58;;;;;;;23.50;13.05;;;;;;;3.05;80.82;100451.73;1770204;80;21302;-60
2022/11/23 10:56:08;;;;;;;20.88;11.25;;;;;;;3.11;80.85;100459.84;1787294;80;21179;-59
2022/11/23 10:59:33;;;;;;;18.92;11.38;;;;;;;3.21;80.85;100456.23;1790498;78;21322;-58
2022/11/23 11:02:58;;;;;;;16.23;9.55;;;;;;;3.24;80.65;100461.88;1783561;79;21954;-59
2022/11/23 11:06:05;;;;;;;23.50;12.85;;;;;;;3.13;80.42;100462.77;1783976;80;21178;-60
2022/11/23 11:09:27;;;;;;;17.23;10.00;;;;;;;3.09;80.50;100464.87;1784948;79;21191;-59
2022/11/23 11:12:35;;;;;;;18.20;10.18;;;;;;;3.11;80.60;100464.73;1784252;79;21250;-57
2022/11/23 11:15:42;;;;;;;17.32;10.03;;;;;;;3.18;80.73;100465.97;1766365;80;21156;-58
2022/11/23 11:19:00;;;;;;;18.05;11.35;;;;;;;3.24;80.74;100469.98;1798278;79;21687;-60
2022/11/23 11:22:17;;;;;;;19.20;11.68;;;;;;;3.27;80.69;100469.25;1798458;80;21202;-59
2022/11/23 11:25:42;;;;;;;;;;;;;;;3.26;80.67;100472.95;1782298;79;21538;-58
2022/11/23 11:28:49;;;;;;;17.62;10.00;;;;;;;3.27;80.55;100465.70;1783378;80;20257;-58
2022/11/23 11:32:01;;;;;;;21.30;11.33;;;;;;;3.27;80.62;100462.48;1783339;80;21234;-58
2022/11/23 11:35:36;;;;;;;18.48;10.55;;;;;;;3.34;80.69;100473.66;1772206;79;21189;-58
2022/11/23 11:38:43;;;;;;;16.32;10.20;;;;;;;3.39;80.68;100469.59;1773369;80;21215;-58
2022/11/23 11:41:53;;;;;;;20.95;12.10;;;;;;;3.42;80.55;100478.80;1782055;80;21993;-57
2022/11/23 11:45:02;;;;;;;20.00;11.57;;;;;;;3.41;80.48;100471.66;1797262;79;21203;-59
2022/11/23 11:48:42;;;;;;;17.62;10.43;;;;;;;3.42;80.50;100496.88;1769355;79;21222;-58
2022/11/23 11:52:08;;;;;;;21.55;12.05;;;;;;;3.41;80.44;100494.66;1780013;79;21150;-59
2022/11/23 11:55:32;;;;;;;20.77;11.65;;;;;;;3.42;80.52;100500.45;1760382;80;21717;-59
2022/11/23 11:58:37;;;;;;;16.15;9.53;;;;;;;3.45;80.51;100492.56;1777702;79;21774;-58
2022/11/23 12:01:53;;;;;;;13.88;8.83;;;;;;;3.46;80.43;100495.61;1796706;79;21204;-58
2022/11/23 12:05:26;;;;;;;18.20;8.70;;;;;;;3.42;80.42;100496.39;1786282;79;21722;-59
2022/11/23 12:08:54;;;;;;;21.75;11.57;;;;;;;3.45;80.44;100504.73;1805046;79;21354;-59
2022/11/23 12:11:59;;;;;;;27.40;14.03;;;;;;;3.47;80.55;100508.18;1805366;79;21241;-59
2022/11/23 12:15:05;;;;;;;29.85;16.32;;;;;;;3.47;80.46;100525.77;1805542;79;21161;-60
2022/11/23 12:18:32;;;;;;;18.92;10.30;;;;;;;3.44;80.46;100525.51;1767625;80;21718;-58
2022/11/23 12:22:03;;;;;;;19.20;10.53;;;;;;;3.45;80.45;100531.31;1768187;80;21232;-59
2022/11/23 12:25:50;;;;;;;20.15;11.73;;;;;;;3.48;80.36;100533.76;1866361;76;28534;-58
2022/11/23 12:29:17;;;;;;;20.48;11.65;;;;;;;3.37;80.34;100528.37;1762661;80;21325;-59
